createdAt,value
2022-12-19T00:00:39.747Z,-8.25
2022-12-19T00:03:27.764Z,-8.27
2022-12-19T00:06:14.986Z,-8.29
2022-12-19T00:09:01.252Z,-8.36
2022-12-19T00:11:47.820Z,-8.38
2022-12-19T00:14:34.237Z,-8.35
2022-12-19T00:17:20.971Z,-8.38
2022-12-19T00:20:08.299Z,-8.47
2022-12-19T00:22:55.823Z,-8.53
2022-12-19T00:25:42.107Z,-8.58
2022-12-19T00:28:29.252Z,-8.58
2022-12-19T00:31:16.381Z,-8.57
2022-12-19T00:34:02.921Z,-8.52
2022-12-19T00:36:49.015Z,-8.57
2022-12-19T00:39:35.459Z,-8.58
2022-12-19T00:42:21.919Z,-8.60
2022-12-19T00:45:08.592Z,-8.57
2022-12-19T00:47:54.759Z,-8.63
2022-12-19T00:50:41.125Z,-8.68
2022-12-19T00:53:27.371Z,-8.65
2022-12-19T00:56:15.322Z,-8.64
2022-12-19T00:59:02.578Z,-8.63
2022-12-19T01:01:49.064Z,-8.64
2022-12-19T01:04:39.843Z,-8.62
2022-12-19T01:07:27.981Z,-8.55
2022-12-19T01:10:14.397Z,-8.57
2022-12-19T01:13:00.932Z,-8.56
2022-12-19T01:15:47.411Z,-8.45
2022-12-19T01:18:34.003Z,-8.41
2022-12-19T01:21:20.531Z,-8.40
2022-12-19T01:24:06.867Z,-8.41
2022-12-19T01:26:52.856Z,-8.45
2022-12-19T01:29:51.738Z,-8.44
2022-12-19T01:32:39.717Z,-8.48
2022-12-19T01:35:26.433Z,-8.46
2022-12-19T01:38:19.842Z,-8.41
2022-12-19T01:41:06.399Z,-8.36
2022-12-19T01:44:05.581Z,-8.36
2022-12-19T01:46:57.601Z,-8.34
2022-12-19T01:49:45.324Z,-8.33
2022-12-19T01:52:31.593Z,-8.35
2022-12-19T01:55:18.453Z,-8.32
2022-12-19T01:58:04.992Z,-8.31
2022-12-19T02:00:51.583Z,-8.32
2022-12-19T02:03:38.989Z,-8.31
2022-12-19T02:06:25.611Z,-8.31
2022-12-19T02:09:11.560Z,-8.25
2022-12-19T02:11:58.920Z,-8.24
2022-12-19T02:14:45.428Z,-8.25
2022-12-19T02:17:39.135Z,-8.29
2022-12-19T02:20:30.538Z,-8.33
2022-12-19T02:23:32.101Z,-8.31
2022-12-19T02:26:43.045Z,-8.27
2022-12-19T02:29:49.531Z,-8.31
2022-12-19T02:32:48.312Z,-8.33
2022-12-19T02:35:45.371Z,-8.31
2022-12-19T02:38:51.617Z,-8.34
2022-12-19T02:41:44.152Z,-8.29
2022-12-19T02:44:33.694Z,-8.25
2022-12-19T02:47:21.171Z,-8.23
2022-12-19T02:50:08.223Z,-8.21
2022-12-19T02:52:54.796Z,-8.21
2022-12-19T02:56:01.544Z,-8.20
2022-12-19T02:58:52.261Z,-8.26
2022-12-19T03:01:43.263Z,-8.20
2022-12-19T03:04:45.565Z,-8.20
2022-12-19T03:07:32.183Z,-8.19
2022-12-19T03:10:44.354Z,-8.18
2022-12-19T03:13:54.970Z,-8.17
2022-12-19T03:16:41.086Z,-8.19
2022-12-19T03:19:27.467Z,-8.22
2022-12-19T03:22:13.881Z,-8.20
2022-12-19T03:25:00.502Z,-8.19
2022-12-19T03:27:46.931Z,-8.13
2022-12-19T03:30:33.448Z,-8.13
2022-12-19T03:33:19.752Z,-8.10
2022-12-19T03:36:07.840Z,-8.10
2022-12-19T03:38:54.731Z,-8.08
2022-12-19T03:41:59.986Z,-8.03
2022-12-19T03:44:46.418Z,-8.04
2022-12-19T03:47:37.103Z,-8.08
2022-12-19T03:50:23.687Z,-8.08
2022-12-19T03:53:20.579Z,-8.09
2022-12-19T03:56:16.792Z,-8.11
2022-12-19T03:59:21.503Z,-8.07
2022-12-19T04:02:08.423Z,-8.05
2022-12-19T04:05:01.120Z,-8.04
2022-12-19T04:07:47.696Z,-8.00
2022-12-19T04:10:36.681Z,-8.00
2022-12-19T04:13:33.556Z,-7.95
2022-12-19T04:16:45.867Z,-7.92
2022-12-19T04:19:42.656Z,-7.86
2022-12-19T04:22:34.551Z,-7.83
2022-12-19T04:25:29.174Z,-7.81
2022-12-19T04:28:38.799Z,-7.82
2022-12-19T04:31:25.127Z,-7.83
2022-12-19T04:34:11.859Z,-7.81
2022-12-19T04:36:58.562Z,-7.80
2022-12-19T04:39:45.136Z,-7.81
2022-12-19T04:42:31.377Z,-7.78
2022-12-19T04:45:17.640Z,-7.72
2022-12-19T04:48:04.573Z,-7.71
2022-12-19T04:50:51.389Z,-7.66
2022-12-19T04:53:37.707Z,-7.66
2022-12-19T04:56:24.191Z,-7.62
2022-12-19T04:59:10.611Z,-7.58
2022-12-19T05:01:57.851Z,-7.59
2022-12-19T05:04:45.524Z,-7.58
2022-12-19T05:07:32.058Z,-7.57
2022-12-19T05:10:18.389Z,-7.53
2022-12-19T05:13:04.569Z,-7.45
2022-12-19T05:16:01.223Z,-7.41
2022-12-19T05:18:47.788Z,-7.36
2022-12-19T05:21:34.137Z,-7.37
2022-12-19T05:24:20.758Z,-7.38
2022-12-19T05:27:07.238Z,-7.36
2022-12-19T05:29:53.327Z,-7.31
2022-12-19T05:32:39.965Z,-7.27
2022-12-19T05:35:26.312Z,-7.25
2022-12-19T05:38:12.919Z,-7.19
2022-12-19T05:41:00.302Z,-7.10
2022-12-19T05:43:50.517Z,-7.01
2022-12-19T05:46:36.955Z,-6.98
2022-12-19T05:49:23.562Z,-6.96
2022-12-19T05:52:11.425Z,-6.95
2022-12-19T05:54:57.684Z,-6.87
2022-12-19T05:57:44.461Z,-6.85
2022-12-19T06:00:30.901Z,-6.89
2022-12-19T06:03:17.345Z,-6.92
2022-12-19T06:06:04.550Z,-6.87
2022-12-19T06:08:54.719Z,-6.84
2022-12-19T06:11:40.772Z,-6.74
2022-12-19T06:14:27.128Z,-6.60
2022-12-19T06:17:13.773Z,-6.43
2022-12-19T06:20:00.192Z,-6.25
2022-12-19T06:22:46.417Z,-6.12
2022-12-19T06:25:32.828Z,-6.01
2022-12-19T06:28:20.182Z,-5.90
2022-12-19T06:31:07.376Z,-5.83
2022-12-19T06:33:54.586Z,-5.73
2022-12-19T06:36:41.212Z,-5.65
2022-12-19T06:39:27.989Z,-5.65
2022-12-19T06:42:22.957Z,-5.67
2022-12-19T06:45:09.498Z,-5.66
2022-12-19T06:47:56.217Z,-5.67
2022-12-19T06:50:42.469Z,-5.66
2022-12-19T06:53:28.777Z,-5.66
2022-12-19T06:56:15.749Z,-5.62
2022-12-19T06:59:02.443Z,-5.59
2022-12-19T07:02:19.822Z,-5.57
2022-12-19T07:05:06.684Z,-5.56
2022-12-19T07:07:52.857Z,-5.53
2022-12-19T07:10:39.543Z,-5.50
2022-12-19T07:13:25.718Z,-5.43
2022-12-19T07:16:12.279Z,-5.33
2022-12-19T07:18:58.649Z,-5.22
2022-12-19T07:21:44.937Z,-5.09
2022-12-19T07:24:31.152Z,-4.88
2022-12-19T07:27:17.697Z,-4.74
2022-12-19T07:30:05.023Z,-4.61
2022-12-19T07:32:51.582Z,-4.56
2022-12-19T07:35:37.981Z,-4.45
2022-12-19T07:38:24.489Z,-4.27
2022-12-19T07:41:10.489Z,-4.07
2022-12-19T07:43:56.893Z,-3.87
2022-12-19T07:46:43.206Z,-3.78
2022-12-19T07:49:29.507Z,-3.60
2022-12-19T07:52:15.578Z,-3.50
2022-12-19T07:55:01.784Z,-3.35
2022-12-19T07:57:48.387Z,-3.20
2022-12-19T08:00:35.046Z,-3.03
2022-12-19T08:03:22.007Z,-2.81
2022-12-19T08:06:08.642Z,-2.84
2022-12-19T08:08:55.239Z,-2.92
2022-12-19T08:11:41.884Z,-2.79
2022-12-19T08:14:28.590Z,-2.61
2022-12-19T08:17:22.258Z,-2.22
2022-12-19T08:20:09.628Z,-1.99
2022-12-19T08:22:55.998Z,-1.76
2022-12-19T08:25:42.471Z,-1.39
2022-12-19T08:28:28.911Z,-1.14
2022-12-19T08:31:16.858Z,-1.24
2022-12-19T08:34:03.238Z,-1.34
2022-12-19T08:36:50.215Z,-1.53
2022-12-19T08:39:36.659Z,-1.71
2022-12-19T08:42:23.201Z,-1.82
2022-12-19T08:45:09.636Z,-1.84
2022-12-19T08:47:56.855Z,-1.92
2022-12-19T08:50:53.843Z,-1.95
2022-12-19T08:53:41.183Z,-1.98
2022-12-19T08:56:27.552Z,-1.95
2022-12-19T08:59:24.938Z,-1.83
2022-12-19T09:02:17.459Z,-1.62
2022-12-19T09:06:01.676Z,-1.39
2022-12-19T09:08:10.424Z,-1.21
2022-12-19T09:11:05.104Z,-1.10
2022-12-19T09:13:51.798Z,-1.01
2022-12-19T09:16:38.200Z,-0.87
2022-12-19T09:19:24.721Z,-0.75
2022-12-19T09:22:11.999Z,-0.54
2022-12-19T09:24:58.850Z,-0.38
2022-12-19T09:28:17.958Z,-0.15
2022-12-19T09:30:57.795Z,0.09
2022-12-19T09:33:44.385Z,0.27
2022-12-19T09:36:31.179Z,0.42
2022-12-19T09:39:17.766Z,0.62
2022-12-19T09:42:21.952Z,0.71
2022-12-19T09:45:31.311Z,0.67
2022-12-19T09:48:24.732Z,0.44
2022-12-19T09:51:18.353Z,0.37
2022-12-19T09:54:16.635Z,0.52
2022-12-19T09:57:05.333Z,1.38
2022-12-19T09:59:55.488Z,1.89
2022-12-19T10:02:54.379Z,2.24
2022-12-19T10:06:40.411Z,2.29
2022-12-19T10:10:12.440Z,2.03
2022-12-19T10:12:43.926Z,2.04
2022-12-19T10:15:38.819Z,1.81
2022-12-19T10:18:33.246Z,1.71
2022-12-19T10:22:17.843Z,1.86
2022-12-19T10:25:21.214Z,1.81
2022-12-19T10:28:37.342Z,1.87
2022-12-19T10:31:38.613Z,2.06
2022-12-19T10:34:33.326Z,2.22
2022-12-19T10:37:40.853Z,2.31
2022-12-19T10:40:34.698Z,2.44
2022-12-19T10:43:44.409Z,2.48
2022-12-19T10:46:46.340Z,2.29
2022-12-19T10:49:32.746Z,2.32
2022-12-19T10:53:07.262Z,2.26
2022-12-19T10:55:55.167Z,2.34
2022-12-19T10:58:43.254Z,2.70
2022-12-19T11:01:30.193Z,3.09
2022-12-19T11:04:33.446Z,3.18
2022-12-19T11:07:20.857Z,3.28
2022-12-19T11:11:57.985Z,3.30
2022-12-19T11:19:46.411Z,3.72
2022-12-19T11:23:39.141Z,3.77
2022-12-19T11:29:26.597Z,4.06
2022-12-19T11:29:40.715Z,4.28
2022-12-19T11:30:41.453Z,4.34
2022-12-19T11:33:14.475Z,4.20
2022-12-19T11:36:01.792Z,4.15
2022-12-19T11:38:54.296Z,4.19
2022-12-19T11:41:47.523Z,4.22
2022-12-19T11:44:37.389Z,4.10
2022-12-19T11:47:38.648Z,4.28
2022-12-19T11:50:27.881Z,4.21
2022-12-19T11:53:23.249Z,3.94
2022-12-19T11:56:15.796Z,3.97
2022-12-19T11:59:11.718Z,3.79
2022-12-19T12:02:19.007Z,3.80
2022-12-19T12:05:42.747Z,3.92
2022-12-19T12:12:33.450Z,3.85
2022-12-19T12:21:30.006Z,3.76
2022-12-19T12:27:14.842Z,3.72
2022-12-19T12:31:09.513Z,3.67
2022-12-19T12:31:17.154Z,3.66
2022-12-19T12:31:48.343Z,3.69
2022-12-19T12:32:04.007Z,3.63
2022-12-19T12:35:48.802Z,3.55
2022-12-19T12:39:41.347Z,3.44
2022-12-19T12:42:59.914Z,3.40
2022-12-19T12:45:48.528Z,3.34
2022-12-19T12:48:38.583Z,3.29
2022-12-19T12:51:25.192Z,3.06
2022-12-19T12:54:12.604Z,3.06
2022-12-19T12:56:59.204Z,3.03
2022-12-19T12:59:46.599Z,3.16
2022-12-19T13:02:33.418Z,3.20
2022-12-19T13:05:40.951Z,2.96
2022-12-19T13:08:29.500Z,2.72
2022-12-19T13:11:54.921Z,2.64
2022-12-19T13:14:43.204Z,2.46
2022-12-19T13:17:35.236Z,2.29
2022-12-19T13:20:25.236Z,2.21
2022-12-19T13:23:26.443Z,1.98
2022-12-19T13:26:43.106Z,1.86
2022-12-19T13:29:31.837Z,1.70
2022-12-19T13:32:18.244Z,1.69
2022-12-19T13:35:49.127Z,1.56
2022-12-19T13:39:51.733Z,1.48
2022-12-19T13:41:47.243Z,1.35
2022-12-19T13:44:37.355Z,1.34
2022-12-19T13:47:24.656Z,1.29
2022-12-19T13:50:37.483Z,1.28
2022-12-19T13:53:26.222Z,1.23
2022-12-19T13:56:14.238Z,1.16
2022-12-19T13:59:01.555Z,1.06
2022-12-19T14:01:48.229Z,0.95
2022-12-19T14:04:34.770Z,0.84
2022-12-19T14:07:37.466Z,0.80
2022-12-19T14:11:32.296Z,0.75
2022-12-19T14:14:12.773Z,0.68
2022-12-19T14:17:07.995Z,0.71
2022-12-19T14:20:06.807Z,0.72
2022-12-19T14:23:01.019Z,0.68
2022-12-19T14:28:14.470Z,0.64
2022-12-19T14:30:28.625Z,0.59
2022-12-19T14:33:46.477Z,0.62
2022-12-19T14:36:12.362Z,0.58
2022-12-19T14:39:27.033Z,0.55
2022-12-19T14:42:11.691Z,0.51
2022-12-19T14:52:36.162Z,0.49
2022-12-19T14:54:01.973Z,0.47
2022-12-19T14:54:37.407Z,0.43
2022-12-19T14:55:32.444Z,0.38
2022-12-19T14:58:53.923Z,0.32
2022-12-19T15:01:09.245Z,0.29
2022-12-19T15:04:53.435Z,0.24
2022-12-19T15:07:21.152Z,0.12
2022-12-19T15:11:04.268Z,0.10
2022-12-19T15:14:48.563Z,0.12
2022-12-19T15:16:37.330Z,0.12
2022-12-19T15:19:23.906Z,0.11
2022-12-19T15:22:10.492Z,0.14
2022-12-19T15:24:56.985Z,0.13
2022-12-19T15:27:44.093Z,0.12
2022-12-19T15:30:30.457Z,0.14
2022-12-19T15:33:16.926Z,0.13
2022-12-19T15:36:03.453Z,0.11
2022-12-19T15:38:49.766Z,0.09
2022-12-19T15:41:36.108Z,0.10
2022-12-19T15:44:36.740Z,0.11
2022-12-19T15:47:30.133Z,0.08
2022-12-19T15:50:21.900Z,0.07
2022-12-19T15:53:34.581Z,0.13
2022-12-19T15:56:30.555Z,0.19
2022-12-19T15:59:38.560Z,0.25
2022-12-19T16:02:27.990Z,0.24
2022-12-19T16:05:24.498Z,0.25
2022-12-19T16:08:12.364Z,0.22
2022-12-19T16:11:01.695Z,0.19
2022-12-19T16:13:55.703Z,0.18
2022-12-19T16:16:42.467Z,0.16
2022-12-19T16:19:30.291Z,0.14
2022-12-19T16:22:22.440Z,0.12
2022-12-19T16:25:11.459Z,0.09
2022-12-19T16:27:58.437Z,0.13
2022-12-19T16:30:45.119Z,0.18
2022-12-19T16:33:31.738Z,0.20
2022-12-19T16:36:18.558Z,0.21
2022-12-19T16:39:05.395Z,0.24
2022-12-19T16:41:51.689Z,0.25
2022-12-19T16:44:37.972Z,0.29
2022-12-19T16:47:24.760Z,0.32
2022-12-19T16:50:31.303Z,0.27
2022-12-19T16:53:17.926Z,0.26
2022-12-19T16:56:04.767Z,0.32
2022-12-19T16:58:51.878Z,0.37
2022-12-19T17:01:38.620Z,0.39
2022-12-19T17:04:25.079Z,0.44
2022-12-19T17:07:12.045Z,0.46
2022-12-19T17:09:58.455Z,0.45
2022-12-19T17:12:44.931Z,0.45
2022-12-19T17:15:36.799Z,0.46
2022-12-19T17:18:34.461Z,0.45
2022-12-19T17:21:21.736Z,0.45
2022-12-19T17:24:12.588Z,0.47
2022-12-19T17:26:58.836Z,0.49
2022-12-19T17:29:47.167Z,0.54
2022-12-19T17:32:33.663Z,0.56
2022-12-19T17:35:27.595Z,0.61
2022-12-19T17:38:15.752Z,0.64
2022-12-19T17:41:02.414Z,0.63
2022-12-19T17:43:48.769Z,0.63
2022-12-19T17:46:35.247Z,0.61
2022-12-19T17:49:27.397Z,0.55
2022-12-19T17:52:18.010Z,0.57
2022-12-19T17:55:22.102Z,0.64
2022-12-19T17:58:09.982Z,0.69
2022-12-19T18:00:56.755Z,0.77
2022-12-19T18:03:42.941Z,0.78
2022-12-19T18:06:29.878Z,0.79
2022-12-19T18:09:20.170Z,0.79
2022-12-19T18:12:06.916Z,0.77
2022-12-19T18:14:53.235Z,0.77
2022-12-19T18:17:39.587Z,0.73
2022-12-19T18:20:32.608Z,0.70
2022-12-19T18:23:21.290Z,0.72
2022-12-19T18:26:07.976Z,0.71
2022-12-19T18:28:54.789Z,0.71
2022-12-19T18:31:46.431Z,0.72
2022-12-19T18:34:36.622Z,0.73
2022-12-19T18:37:23.080Z,0.73
2022-12-19T18:40:25.973Z,0.71
2022-12-19T18:43:16.334Z,0.68
2022-12-19T18:46:02.477Z,0.65
2022-12-19T18:48:49.062Z,0.60
2022-12-19T18:51:38.092Z,0.61
2022-12-19T18:54:25.345Z,0.62
2022-12-19T18:57:11.671Z,0.59
2022-12-19T18:59:58.261Z,0.61
2022-12-19T19:02:56.165Z,0.59
2022-12-19T19:05:42.925Z,0.57
2022-12-19T19:08:31.297Z,0.62
2022-12-19T19:11:17.486Z,0.65
2022-12-19T19:14:04.237Z,0.68
2022-12-19T19:16:52.492Z,0.71
2022-12-19T19:19:38.647Z,0.72
2022-12-19T19:22:25.443Z,0.69
2022-12-19T19:25:11.991Z,0.67
2022-12-19T19:27:58.525Z,0.69
2022-12-19T19:30:45.307Z,0.68
2022-12-19T19:33:35.491Z,0.65
2022-12-19T19:36:24.239Z,0.66
2022-12-19T19:39:11.745Z,0.73
2022-12-19T19:41:58.408Z,0.80
2022-12-19T19:44:46.497Z,0.81
2022-12-19T19:47:36.114Z,0.82
2022-12-19T19:50:25.277Z,0.89
2022-12-19T19:53:11.566Z,0.91
2022-12-19T19:56:00.734Z,0.92
2022-12-19T19:58:46.926Z,0.89
2022-12-19T20:01:35.059Z,0.89
2022-12-19T20:04:21.875Z,0.85
2022-12-19T20:07:08.529Z,0.81
2022-12-19T20:09:55.268Z,0.82
2022-12-19T20:12:41.678Z,0.83
2022-12-19T20:15:28.305Z,0.86
2022-12-19T20:18:15.003Z,0.89
2022-12-19T20:21:01.440Z,0.90
2022-12-19T20:23:47.815Z,0.91
2022-12-19T20:26:35.353Z,0.87
2022-12-19T20:29:21.947Z,0.85
2022-12-19T20:32:08.409Z,0.89
2022-12-19T20:34:54.821Z,0.92
2022-12-19T20:37:40.999Z,0.94
2022-12-19T20:40:27.433Z,0.95
2022-12-19T20:43:14.369Z,0.96
2022-12-19T20:46:11.967Z,0.94
2022-12-19T20:48:58.284Z,0.91
2022-12-19T20:51:47.221Z,0.89
2022-12-19T20:54:33.809Z,0.87
2022-12-19T20:57:20.353Z,0.86
2022-12-19T21:00:08.829Z,0.88
2022-12-19T21:03:27.785Z,0.89
2022-12-19T21:06:02.408Z,0.92
2022-12-19T21:08:48.732Z,0.96
2022-12-19T21:11:36.582Z,0.97
2022-12-19T21:14:23.096Z,0.97
2022-12-19T21:17:09.597Z,0.97
2022-12-19T21:19:56.154Z,0.97
2022-12-19T21:22:42.611Z,0.98
2022-12-19T21:25:28.974Z,0.97
2022-12-19T21:28:15.350Z,1.02
2022-12-19T21:31:04.397Z,1.07
2022-12-19T21:33:51.407Z,1.15
2022-12-19T21:36:38.706Z,1.18
2022-12-19T21:39:25.735Z,1.17
2022-12-19T21:42:12.081Z,1.12
2022-12-19T21:44:58.269Z,1.05
2022-12-19T21:47:45.317Z,1.01
2022-12-19T21:50:33.629Z,0.96
2022-12-19T21:53:19.859Z,0.96
2022-12-19T21:56:08.101Z,0.96
2022-12-19T21:58:56.827Z,0.94
2022-12-19T22:01:43.655Z,0.95
2022-12-19T22:04:30.035Z,0.96
2022-12-19T22:07:16.319Z,1.01
2022-12-19T22:10:02.434Z,0.99
2022-12-19T22:12:49.014Z,0.98
2022-12-19T22:15:36.458Z,0.99
2022-12-19T22:18:23.021Z,0.96
2022-12-19T22:21:12.032Z,0.92
2022-12-19T22:23:59.318Z,0.92
2022-12-19T22:26:45.916Z,0.94
2022-12-19T22:29:36.492Z,0.97
2022-12-19T22:32:23.302Z,1.02
2022-12-19T22:35:09.648Z,1.03
2022-12-19T22:37:57.040Z,1.07
2022-12-19T22:40:43.708Z,1.07
2022-12-19T22:43:30.319Z,1.04
2022-12-19T22:46:21.593Z,1.01
2022-12-19T22:49:08.885Z,1.03
2022-12-19T22:51:55.390Z,0.98
2022-12-19T22:54:42.093Z,0.97
2022-12-19T22:57:28.420Z,1.02
2022-12-19T23:00:14.958Z,1.06
2022-12-19T23:03:01.812Z,1.12
2022-12-19T23:05:51.838Z,1.15
2022-12-19T23:08:38.704Z,1.17
2022-12-19T23:11:28.435Z,1.16
2022-12-19T23:14:16.975Z,1.07
2022-12-19T23:17:03.141Z,0.97
2022-12-19T23:19:49.374Z,0.94
2022-12-19T23:22:35.797Z,0.97
2022-12-19T23:25:22.062Z,1.02
2022-12-19T23:28:09.569Z,1.04
2022-12-19T23:31:06.162Z,1.04
2022-12-19T23:33:52.507Z,1.04
2022-12-19T23:39:45.807Z,0.98
2022-12-19T23:42:32.241Z,0.98
2022-12-19T23:45:18.488Z,1.00
2022-12-19T23:48:05.391Z,1.03
2022-12-19T23:51:02.818Z,1.04
2022-12-19T23:53:49.131Z,1.00
2022-12-19T23:56:36.120Z,0.98
2022-12-19T23:59:23.013Z,0.99
